sensor_id;sensor_type;location;lat;lon;timestamp;temperature;humidity
8928;DHT22;4499;48.304;11.902;2023-06-04T20:11:52;18.00;61.40
8928;DHT22;4499;48.304;11.902;2023-06-04T20:14:21;17.80;61.50
8928;DHT22;4499;48.304;11.902;2023-06-04T20:16:49;17.70;61.60
8928;DHT22;4499;48.304;11.902;2023-06-04T20:19:17;17.60;62.40
8928;DHT22;4499;48.304;11.902;2023-06-04T20:21:45;17.60;62.10
8928;DHT22;4499;48.304;11.902;2023-06-04T20:24:13;17.60;63.00
8928;DHT22;4499;48.304;11.902;2023-06-04T20:26:45;17.60;63.70
8928;DHT22;4499;48.304;11.902;2023-06-04T20:29:14;17.50;64.40
8928;DHT22;4499;48.304;11.902;2023-06-04T20:31:42;17.50;65.90
8928;DHT22;4499;48.304;11.902;2023-06-04T20:34:10;17.40;68.60
8928;DHT22;4499;48.304;11.902;2023-06-04T20:36:40;17.40;68.40
8928;DHT22;4499;48.304;11.902;2023-06-04T20:39:08;17.30;69.00
8928;DHT22;4499;48.304;11.902;2023-06-04T20:41:36;17.30;69.40
8928;DHT22;4499;48.304;11.902;2023-06-04T20:44:04;17.20;70.10
8928;DHT22;4499;48.304;11.902;2023-06-04T20:46:34;17.20;70.40
8928;DHT22;4499;48.304;11.902;2023-06-04T20:49:02;17.20;71.00
8928;DHT22;4499;48.304;11.902;2023-06-04T20:51:30;17.20;71.70
8928;DHT22;4499;48.304;11.902;2023-06-04T20:53:58;17.10;72.30
8928;DHT22;4499;48.304;11.902;2023-06-04T20:56:26;17.10;72.90
8928;DHT22;4499;48.304;11.902;2023-06-04T20:58:54;17.10;73.20
8928;DHT22;4499;48.304;11.902;2023-06-04T21:01:22;17.10;73.60
8928;DHT22;4499;48.304;11.902;2023-06-04T21:03:52;17.10;72.80
8928;DHT22;4499;48.304;11.902;2023-06-04T21:06:20;17.10;74.30
8928;DHT22;4499;48.304;11.902;2023-06-04T21:08:49;17.10;73.70
8928;DHT22;4499;48.304;11.902;2023-06-04T21:11:17;17.00;74.20
8928;DHT22;4499;48.304;11.902;2023-06-04T21:13:45;17.00;74.00
8928;DHT22;4499;48.304;11.902;2023-06-04T21:16:13;16.90;74.30
8928;DHT22;4499;48.304;11.902;2023-06-04T21:18:41;17.00;75.30
8928;DHT22;4499;48.304;11.902;2023-06-04T21:21:11;16.90;75.70
8928;DHT22;4499;48.304;11.902;2023-06-04T21:23:39;16.90;76.40
8928;DHT22;4499;48.304;11.902;2023-06-04T21:26:07;16.90;77.50
8928;DHT22;4499;48.304;11.902;2023-06-04T21:28:35;16.80;78.80
8928;DHT22;4499;48.304;11.902;2023-06-04T21:31:03;16.80;79.40
8928;DHT22;4499;48.304;11.902;2023-06-04T21:33:32;16.80;80.00
8928;DHT22;4499;48.304;11.902;2023-06-04T21:36:00;16.70;81.30
8928;DHT22;4499;48.304;11.902;2023-06-04T21:38:29;16.70;82.50
8928;DHT22;4499;48.304;11.902;2023-06-04T21:40:57;16.80;82.60
8928;DHT22;4499;48.304;11.902;2023-06-04T21:43:25;16.90;83.40
8928;DHT22;4499;48.304;11.902;2023-06-04T21:45:54;17.00;83.10
8928;DHT22;4499;48.304;11.902;2023-06-04T21:48:22;17.00;83.00
8928;DHT22;4499;48.304;11.902;2023-06-04T21:50:50;17.00;84.30
8928;DHT22;4499;48.304;11.902;2023-06-04T21:53:18;17.00;83.80
8928;DHT22;4499;48.304;11.902;2023-06-04T21:55:48;17.00;85.20
8928;DHT22;4499;48.304;11.902;2023-06-04T21:58:17;17.00;85.60
8928;DHT22;4499;48.304;11.902;2023-06-04T22:00:46;17.00;86.60
8928;DHT22;4499;48.304;11.902;2023-06-04T22:03:14;17.00;87.40
8928;DHT22;4499;48.304;11.902;2023-06-04T22:05:43;16.90;89.60
8928;DHT22;4499;48.304;11.902;2023-06-04T22:08:11;16.90;90.30
8928;DHT22;4499;48.304;11.902;2023-06-04T22:10:40;16.80;90.80
8928;DHT22;4499;48.304;11.902;2023-06-04T22:13:09;16.80;91.70
8928;DHT22;4499;48.304;11.902;2023-06-04T22:15:38;16.80;92.50
8928;DHT22;4499;48.304;11.902;2023-06-04T22:18:06;16.70;93.30
8928;DHT22;4499;48.304;11.902;2023-06-04T22:20:34;16.70;93.90
8928;DHT22;4499;48.304;11.902;2023-06-04T22:23:02;16.70;95.20
8928;DHT22;4499;48.304;11.902;2023-06-04T22:25:30;16.70;96.10
8928;DHT22;4499;48.304;11.902;2023-06-04T22:27:58;16.70;96.90
8928;DHT22;4499;48.304;11.902;2023-06-04T22:30:28;16.60;97.70
8928;DHT22;4499;48.304;11.902;2023-06-04T22:32:56;16.60;98.40
8928;DHT22;4499;48.304;11.902;2023-06-04T22:35:24;16.60;98.70
8928;DHT22;4499;48.304;11.902;2023-06-04T22:37:52;16.60;99.20
8928;DHT22;4499;48.304;11.902;2023-06-04T22:40:21;16.60;99.90
8928;DHT22;4499;48.304;11.902;2023-06-04T22:42:49;16.60;99.90
8928;DHT22;4499;48.304;11.902;2023-06-04T22:45:18;16.60;99.90
8928;DHT22;4499;48.304;11.902;2023-06-04T22:47:47;16.60;99.90
8928;DHT22;4499;48.304;11.902;2023-06-04T22:50:16;16.60;99.90
8928;DHT22;4499;48.304;11.902;2023-06-04T22:52:44;16.60;99.90
8928;DHT22;4499;48.304;11.902;2023-06-04T22:55:12;16.60;99.90
8928;DHT22;4499;48.304;11.902;2023-06-04T22:57:40;16.70;99.90
8928;DHT22;4499;48.304;11.902;2023-06-04T23:00:11;16.70;99.90
8928;DHT22;4499;48.304;11.902;2023-06-04T23:02:39;16.70;99.90
8928;DHT22;4499;48.304;11.902;2023-06-04T23:05:09;16.70;99.90
8928;DHT22;4499;48.304;11.902;2023-06-04T23:07:37;16.70;99.90
8928;DHT22;4499;48.304;11.902;2023-06-04T23:10:06;16.60;99.90
8928;DHT22;4499;48.304;11.902;2023-06-04T23:12:34;16.70;99.90
8928;DHT22;4499;48.304;11.902;2023-06-04T23:15:03;16.60;99.90
8928;DHT22;4499;48.304;11.902;2023-06-04T23:17:31;16.60;99.90
8928;DHT22;4499;48.304;11.902;2023-06-04T23:19:59;16.60;99.90
8928;DHT22;4499;48.304;11.902;2023-06-04T23:22:29;16.50;99.90
8928;DHT22;4499;48.304;11.902;2023-06-04T23:24:57;16.50;99.90
8928;DHT22;4499;48.304;11.902;2023-06-04T23:27:25;16.50;99.90
8928;DHT22;4499;48.304;11.902;2023-06-04T23:29:54;16.50;99.90
8928;DHT22;4499;48.304;11.902;2023-06-04T23:32:23;16.50;99.90
8928;DHT22;4499;48.304;11.902;2023-06-04T23:34:51;16.50;99.90
8928;DHT22;4499;48.304;11.902;2023-06-04T23:37:19;16.50;99.90
8928;DHT22;4499;48.304;11.902;2023-06-04T23:39:48;16.50;99.90
8928;DHT22;4499;48.304;11.902;2023-06-04T23:42:17;16.40;99.90
8928;DHT22;4499;48.304;11.902;2023-06-04T23:44:45;16.40;99.90
8928;DHT22;4499;48.304;11.902;2023-06-04T23:47:14;16.30;99.90
8928;DHT22;4499;48.304;11.902;2023-06-04T23:49:42;16.20;99.90
8928;DHT22;4499;48.304;11.902;2023-06-04T23:52:11;16.20;99.90
8928;DHT22;4499;48.304;11.902;2023-06-04T23:54:39;16.20;99.90
8928;DHT22;4499;48.304;11.902;2023-06-04T23:57:09;16.10;99.90
8928;DHT22;4499;48.304;11.902;2023-06-04T23:59:37;16.10;99.90
